createdAt,value
2022-10-30T00:00:03.569Z,98194.34
2022-10-30T00:04:07.263Z,98297.47
2022-10-30T00:08:20.758Z,98294.66
2022-10-30T00:12:26.794Z,98303.06
2022-10-30T00:16:31.030Z,98233.66
2022-10-30T00:20:36.795Z,98307.22
2022-10-30T00:24:41.781Z,98270.16
2022-10-30T00:29:00.808Z,98264.19
2022-10-30T00:33:06.669Z,98249.44
2022-10-30T00:37:23.031Z,98279.09
2022-10-30T00:41:26.706Z,98254.94
2022-10-30T00:45:40.946Z,98260.16
2022-10-30T00:49:56.948Z,98254.66
2022-10-30T00:54:05.340Z,98263.16
2022-10-30T00:58:23.697Z,98277.63
2022-10-30T01:02:30.926Z,98274.34
2022-10-30T01:06:37.314Z,98269.41
2022-10-30T01:10:40.919Z,98269.19
2022-10-30T01:14:49.184Z,98282.06
2022-10-30T01:19:01.148Z,98264.94
2022-10-30T01:23:17.426Z,98265.09
2022-10-30T01:27:37.024Z,98267.00
2022-10-30T01:31:53.914Z,98267.00
2022-10-30T01:36:04.728Z,98253.03
2022-10-30T01:40:13.489Z,98259.56
2022-10-30T01:44:21.825Z,98260.91
2022-10-30T01:48:51.808Z,98258.69
2022-10-30T01:53:05.051Z,98253.00
2022-10-30T01:57:14.273Z,98254.50
2022-10-30T02:01:18.388Z,98247.47
2022-10-30T02:05:28.306Z,98251.59
2022-10-30T02:09:33.677Z,98255.00
2022-10-30T02:13:37.778Z,98251.44
2022-10-30T02:17:41.766Z,98248.97
2022-10-30T02:21:46.810Z,98248.97
2022-10-30T02:25:49.813Z,98244.06
2022-10-30T02:29:53.297Z,98246.97
2022-10-30T02:33:57.163Z,98228.03
2022-10-30T02:38:02.717Z,98223.94
2022-10-30T02:46:09.139Z,98232.19
2022-10-30T02:50:12.499Z,98233.47
2022-10-30T02:54:17.378Z,98229.38
2022-10-30T02:58:20.465Z,98232.94
2022-10-30T03:02:24.056Z,98235.50
2022-10-30T03:06:27.970Z,98236.19
2022-10-30T03:10:32.356Z,98232.22
2022-10-30T03:14:35.907Z,98231.03
2022-10-30T03:18:39.806Z,98224.09
2022-10-30T03:22:42.825Z,98239.09
2022-10-30T03:26:48.795Z,98238.06
2022-10-30T03:30:53.464Z,98230.44
2022-10-30T03:34:56.522Z,98235.31
2022-10-30T03:39:00.099Z,98221.66
2022-10-30T03:43:05.003Z,98236.47
2022-10-30T03:47:08.563Z,98232.69
2022-10-30T03:51:11.616Z,98240.94
2022-10-30T03:55:15.200Z,98236.16
2022-10-30T03:59:20.047Z,98227.00
2022-10-30T04:03:23.392Z,98224.81
2022-10-30T04:07:27.261Z,98225.16
2022-10-30T04:11:31.034Z,98231.75
2022-10-30T04:15:36.017Z,98229.28
2022-10-30T04:19:39.792Z,98227.28
2022-10-30T04:23:43.298Z,98228.50
2022-10-30T04:27:47.153Z,98211.81
2022-10-30T04:31:51.644Z,98221.81
2022-10-30T04:35:55.550Z,98223.63
2022-10-30T04:39:58.845Z,98213.19
2022-10-30T04:44:02.240Z,98224.28
2022-10-30T04:48:09.708Z,98218.09
2022-10-30T04:52:13.147Z,98223.31
2022-10-30T04:56:17.078Z,98224.13
2022-10-30T05:00:20.705Z,98219.75
2022-10-30T05:04:25.271Z,98217.00
2022-10-30T05:08:28.909Z,98220.69
2022-10-30T05:12:32.320Z,98214.28
2022-10-30T05:16:35.507Z,98217.81
2022-10-30T05:20:40.396Z,98209.03
2022-10-30T05:24:43.958Z,98220.25
2022-10-30T05:28:48.077Z,98222.22
2022-10-30T05:32:51.622Z,98222.06
2022-10-30T05:36:55.974Z,98208.22
2022-10-30T05:40:59.449Z,98212.31
2022-10-30T05:45:02.959Z,98209.34
2022-10-30T05:49:06.398Z,98212.16
2022-10-30T05:53:11.691Z,98220.66
2022-10-30T05:57:14.731Z,98220.81
2022-10-30T06:01:18.813Z,98211.34
2022-10-30T06:05:22.489Z,98218.56
2022-10-30T06:09:27.463Z,98221.56
2022-10-30T06:13:30.535Z,98231.69
2022-10-30T06:17:34.134Z,98224.25
2022-10-30T06:21:37.245Z,98230.66
2022-10-30T06:25:41.863Z,98234.63
2022-10-30T06:29:44.910Z,98231.88
2022-10-30T06:33:48.418Z,98219.78
2022-10-30T06:37:54.076Z,98233.50
2022-10-30T06:41:59.017Z,98220.75
2022-10-30T06:46:02.295Z,98227.47
2022-10-30T07:01:03.632Z,98240.81
2022-10-30T07:06:02.403Z,98243.19
2022-10-30T07:21:47.425Z,98246.13
2022-10-30T07:26:47.456Z,98249.31
2022-10-30T08:13:15.216Z,98238.13
2022-10-30T08:17:18.300Z,98221.44
2022-10-30T08:21:21.661Z,98229.94
2022-10-30T08:25:26.598Z,98241.06
2022-10-30T08:29:34.821Z,98240.16
2022-10-30T08:33:37.860Z,98245.50
2022-10-30T08:37:40.894Z,98249.84
2022-10-30T08:41:44.057Z,98233.22
2022-10-30T08:45:48.959Z,98227.88
2022-10-30T08:49:52.555Z,98226.31
2022-10-30T08:53:55.612Z,98214.25
2022-10-30T08:57:59.431Z,98211.16
2022-10-30T09:02:04.586Z,98212.28
2022-10-30T09:06:08.317Z,98210.69
2022-10-30T09:10:12.766Z,98211.34
2022-10-30T09:14:15.792Z,98216.41
2022-10-30T09:18:20.777Z,98212.72
2022-10-30T09:22:23.839Z,98210.81
2022-10-30T09:26:27.368Z,98217.59
2022-10-30T09:30:30.439Z,98215.44
2022-10-30T09:34:35.161Z,98213.22
2022-10-30T09:38:38.638Z,98209.53
2022-10-30T09:42:46.113Z,98211.47
2022-10-30T09:47:02.595Z,98207.03
2022-10-30T09:51:17.144Z,98201.34
2022-10-30T09:55:40.435Z,98199.63
2022-10-30T09:59:58.370Z,98196.22
2022-10-30T10:04:08.003Z,98196.06
2022-10-30T10:08:19.284Z,98181.25
2022-10-30T10:12:31.097Z,98183.63
2022-10-30T10:16:37.278Z,98175.00
2022-10-30T10:20:43.551Z,98172.66
2022-10-30T10:24:49.101Z,98167.44
2022-10-30T10:29:15.964Z,98167.50
2022-10-30T10:33:32.770Z,98161.44
2022-10-30T10:37:44.839Z,98169.84
2022-10-30T10:42:10.367Z,98154.13
2022-10-30T10:46:36.469Z,98155.16
2022-10-30T10:50:49.492Z,98160.56
2022-10-30T10:54:58.849Z,98151.94
2022-10-30T10:59:09.092Z,98144.34
2022-10-30T11:07:28.798Z,98137.69
2022-10-30T11:11:32.288Z,98136.00
2022-10-30T11:15:47.490Z,98136.47
2022-10-30T11:19:56.346Z,98133.91
2022-10-30T11:23:59.485Z,98135.06
2022-10-30T11:28:06.559Z,98121.53
2022-10-30T11:32:22.226Z,98128.72
2022-10-30T11:36:27.693Z,98125.09
2022-10-30T11:40:31.305Z,98113.97
2022-10-30T11:44:38.841Z,98112.47
2022-10-30T11:48:46.487Z,98109.91
2022-10-30T11:52:52.636Z,98102.56
2022-10-30T11:56:57.156Z,98093.16
2022-10-30T12:01:03.122Z,98093.34
2022-10-30T12:05:33.061Z,98091.38
2022-10-30T12:09:44.278Z,98084.22
2022-10-30T12:13:48.064Z,98085.84
2022-10-30T12:17:55.332Z,98085.66
2022-10-30T12:22:03.654Z,98086.03
2022-10-30T12:26:12.770Z,98076.31
2022-10-30T12:30:20.085Z,98077.94
2022-10-30T12:34:37.976Z,98069.47
2022-10-30T12:38:46.847Z,98069.00
2022-10-30T12:42:56.971Z,98065.50
2022-10-30T12:47:05.125Z,98067.94
2022-10-30T12:51:21.217Z,98060.53
2022-10-30T12:55:36.282Z,98054.06
2022-10-30T12:59:52.491Z,98050.59
2022-10-30T13:03:59.046Z,98049.69
2022-10-30T13:08:16.227Z,98047.72
2022-10-30T13:12:25.723Z,98049.03
2022-10-30T13:16:31.940Z,98049.03
2022-10-30T13:20:36.297Z,98046.59
2022-10-30T13:24:50.147Z,98043.69
2022-10-30T13:29:00.926Z,98029.78
2022-10-30T13:33:16.035Z,98037.69
2022-10-30T13:37:28.302Z,98035.41
2022-10-30T13:41:41.290Z,98032.31
2022-10-30T13:45:57.869Z,98035.53
2022-10-30T13:50:21.792Z,98035.34
2022-10-30T13:54:29.947Z,98029.22
2022-10-30T13:58:41.877Z,98030.50
2022-10-30T14:03:12.079Z,98028.56
2022-10-30T14:07:26.715Z,98028.06
2022-10-30T14:11:30.378Z,98017.09
2022-10-30T14:15:36.209Z,98020.94
2022-10-30T14:20:27.271Z,98021.31
2022-10-30T14:24:33.324Z,98022.72
2022-10-30T14:28:38.159Z,98018.59
2022-10-30T14:32:53.967Z,98028.75
2022-10-30T14:36:58.962Z,98025.81
2022-10-30T14:41:21.176Z,98028.13
2022-10-30T14:45:29.394Z,98020.81
2022-10-30T14:49:49.445Z,98018.28
2022-10-30T14:54:04.124Z,98018.78
2022-10-30T14:58:20.122Z,98011.16
2022-10-30T15:02:39.420Z,98021.00
2022-10-30T15:06:55.487Z,98007.19
2022-10-30T15:11:22.539Z,98004.81
2022-10-30T15:15:25.889Z,98006.25
2022-10-30T15:19:30.630Z,98008.25
2022-10-30T15:23:37.347Z,98007.03
2022-10-30T15:27:44.847Z,97998.66
2022-10-30T15:31:59.030Z,98002.66
2022-10-30T15:36:02.862Z,98002.13
2022-10-30T15:40:18.904Z,98004.88
2022-10-30T15:44:26.119Z,98016.13
2022-10-30T15:48:31.947Z,98014.41
2022-10-30T15:52:36.776Z,98014.69
2022-10-30T15:57:18.045Z,97999.53
2022-10-30T16:01:26.685Z,98009.53
2022-10-30T16:05:31.063Z,98010.75
2022-10-30T16:09:34.160Z,98019.53
2022-10-30T16:13:38.120Z,98013.16
2022-10-30T16:17:43.468Z,98015.47
2022-10-30T16:21:48.742Z,98014.47
2022-10-30T16:25:57.727Z,98019.19
2022-10-30T16:30:02.605Z,98011.78
2022-10-30T16:34:15.086Z,98023.41
2022-10-30T16:38:19.604Z,98017.63
2022-10-30T16:42:24.820Z,98020.34
2022-10-30T16:46:39.076Z,98023.88
2022-10-30T16:50:44.376Z,98024.16
2022-10-30T16:54:51.200Z,98026.84
2022-10-30T16:58:56.192Z,98030.53
2022-10-30T17:03:00.944Z,98035.88
2022-10-30T17:07:19.205Z,98032.50
2022-10-30T17:11:36.091Z,98033.72
2022-10-30T17:15:39.741Z,98042.69
2022-10-30T17:19:48.798Z,98051.25
2022-10-30T17:23:57.715Z,98044.25
2022-10-30T17:28:01.460Z,98038.28
2022-10-30T17:32:05.837Z,98040.97
2022-10-30T17:36:10.166Z,98042.84
2022-10-30T17:40:15.766Z,98044.03
2022-10-30T17:44:22.345Z,98042.47
2022-10-30T17:48:28.381Z,98053.63
2022-10-30T17:52:31.365Z,98047.28
2022-10-30T17:56:36.359Z,98050.41
2022-10-30T18:00:39.420Z,98052.06
2022-10-30T18:04:44.104Z,98053.72
2022-10-30T18:08:50.777Z,98056.41
2022-10-30T18:12:56.639Z,98052.34
2022-10-30T18:17:00.482Z,98061.03
2022-10-30T18:21:03.696Z,98060.91
2022-10-30T18:25:17.221Z,98055.19
2022-10-30T18:29:21.902Z,98064.38
2022-10-30T18:33:25.673Z,98069.13
2022-10-30T18:37:28.848Z,98065.03
2022-10-30T18:41:35.556Z,98067.03
2022-10-30T18:45:42.049Z,98064.41
2022-10-30T18:49:45.694Z,98060.50
2022-10-30T18:53:52.842Z,98066.06
2022-10-30T18:57:56.009Z,98068.03
2022-10-30T19:02:02.581Z,98066.72
2022-10-30T19:06:07.714Z,98067.06
2022-10-30T19:10:11.688Z,98071.00
2022-10-30T19:14:16.173Z,98062.00
2022-10-30T19:18:22.211Z,98069.38
2022-10-30T19:22:25.332Z,98068.25
2022-10-30T19:26:29.110Z,98068.56
2022-10-30T19:30:32.885Z,98066.28
2022-10-30T19:34:39.176Z,98066.44
2022-10-30T19:38:42.775Z,98066.13
2022-10-30T19:42:46.900Z,98065.78
2022-10-30T19:46:50.305Z,98070.84
2022-10-30T19:50:55.393Z,98067.09
2022-10-30T19:54:58.499Z,98070.19
2022-10-30T19:59:04.220Z,98074.09
2022-10-30T20:03:09.442Z,98076.06
2022-10-30T20:07:14.717Z,98078.84
2022-10-30T20:11:21.149Z,98073.94
2022-10-30T20:15:25.658Z,98077.72
2022-10-30T20:19:30.804Z,98080.47
2022-10-30T20:23:36.549Z,98083.41
2022-10-30T20:27:41.373Z,98082.13
2022-10-30T20:31:44.639Z,98090.91
2022-10-30T20:35:48.969Z,98091.22
2022-10-30T20:39:53.812Z,98095.81
2022-10-30T20:43:57.730Z,98085.03
2022-10-30T20:48:01.712Z,98098.75
2022-10-30T20:52:05.508Z,98103.16
2022-10-30T20:56:11.971Z,98108.22
2022-10-30T21:00:16.174Z,98113.97
2022-10-30T21:04:19.750Z,98117.88
2022-10-30T21:08:23.065Z,98113.63
2022-10-30T21:12:28.158Z,98114.00
2022-10-30T21:16:31.518Z,98119.22
2022-10-30T21:20:35.586Z,98115.78
2022-10-30T21:24:38.600Z,98116.81
2022-10-30T21:28:44.243Z,98117.63
2022-10-30T21:32:48.797Z,98113.38
2022-10-30T21:36:52.063Z,98118.94
2022-10-30T21:40:58.541Z,98119.09
2022-10-30T21:53:45.611Z,98125.44
2022-10-30T21:57:49.442Z,98126.28
2022-10-30T22:01:53.826Z,98130.69
